Flight Track Log - Related Links

Times and Time Zones

All times are in EDT time to prevent confusion due to time zone crossing. See the N36638 flight status page for this flight to view local times or setup timezone preferences in your user account.

Time Position Orientation Groundspeed Altitude Reporting Facility
EDT Latitude Longitude Course Direction KTS MPH feet Rate Location/Type
Fri 10:52:00 AM 34.8387 -79.2641 246° West  Level FlightAware Approximate
Fri 10:53:00 AM 34.8176 -79.3212 246° West  Level FlightAware Approximate
Fri 10:54:00 AM 34.7966 -79.3783 246° West  Level FlightAware Approximate
Fri 10:55:00 AM 34.7755 -79.4354 246° West  Level FlightAware Approximate
Fri 10:56:00 AM 34.7543 -79.4924 246° West  Level FlightAware Approximate
Fri 10:57:00 AM 34.7332 -79.5494 246° West  Level FlightAware Approximate
Fri 10:58:00 AM 34.7120 -79.6064 246° West  Level FlightAware Approximate
Fri 10:59:00 AM 34.6908 -79.6633 246° West  Level FlightAware Approximate
Fri 11:00:00 AM 34.6688 -79.7198 244° Southwest  Level FlightAware Approximate
Fri 11:01:00 AM 34.6465 -79.7760 244° Southwest  Level FlightAware Approximate
Fri 11:02:00 AM 34.6241 -79.8323 244° Southwest  Level FlightAware Approximate
Fri 11:03:00 AM 34.6017 -79.8884 244° Southwest  Level FlightAware Approximate
Fri 11:04:00 AM 34.5792 -79.9446 244° Southwest  Level FlightAware Approximate
Fri 11:05:00 AM 34.5567 -80.0007 244° Southwest  Level FlightAware Approximate
Fri 11:06:00 AM 34.5342 -80.0568 244° Southwest  Level FlightAware Approximate
Fri 11:07:00 AM 34.5117 -80.1128 244° Southwest  Level FlightAware Approximate
Fri 11:08:00 AM 34.4892 -80.1689 244° Southwest  Level FlightAware Approximate
Fri 11:09:00 AM 34.4678 -80.2256 246° West  Level FlightAware Approximate
Fri 11:10:00 AM 34.4468 -80.2825 246° West  Level FlightAware Approximate
Fri 11:11:00 AM 34.4258 -80.3393 246° West  Level FlightAware Approximate
Fri 11:12:00 AM 34.4047 -80.3962 246° West  Level FlightAware Approximate
Fri 11:13:00 AM 34.3837 -80.4530 246° West  Level FlightAware Approximate
Fri 11:14:00 AM 34.3626 -80.5097 246° West  Level FlightAware Approximate
Fri 11:15:00 AM 34.3414 -80.5665 246° West  Level FlightAware Approximate
Fri 11:16:00 AM 34.3203 -80.6232 246° West  Level FlightAware Approximate
Fri 11:17:00 AM 34.2991 -80.6799 246° West  Level FlightAware Approximate
Fri 11:18:00 AM 34.2779 -80.7366 246° West  Level FlightAware Approximate
Fri 11:19:00 AM 34.2562 -80.7929 244° Southwest  Level FlightAware Approximate
Fri 11:20:00 AM 34.2339 -80.8489 244° Southwest  Level FlightAware Approximate
Fri 11:21:00 AM 34.2116 -80.9049 244° Southwest  Level FlightAware Approximate
Fri 11:22:00 AM 34.1892 -80.9608 244° Southwest  Level FlightAware Approximate
Fri 11:23:00 AM 34.1668 -81.0167 244° Southwest  Level FlightAware Approximate
Fri 11:24:00 AM 34.1444 -81.0726 244° Southwest  Level FlightAware Approximate
Fri 11:25:00 AM 34.1219 -81.1284 244° Southwest  Level FlightAware Approximate
Fri 11:26:00 AM 34.0995 -81.1843 244° Southwest  Level FlightAware Approximate
Fri 11:27:00 AM 34.0770 -81.2401 244° Southwest  Level FlightAware Approximate
Fri 11:28:00 AM 34.0545 -81.2958 244° Southwest  Level FlightAware Approximate
Fri 11:29:00 AM 34.0319 -81.3515 244° Southwest  Level FlightAware Approximate
Fri 11:30:00 AM 34.0094 -81.4072 244° Southwest  Level FlightAware Approximate
Fri 11:31:00 AM 33.9868 -81.4629 244° Southwest  Level FlightAware Approximate
Fri 11:32:00 AM 33.9641 -81.5186 244° Southwest  Level FlightAware Approximate
Fri 11:33:00 AM 33.9415 -81.5742 244° Southwest  Level FlightAware Approximate
Fri 11:34:00 AM 33.9188 -81.6298 244° Southwest  Level FlightAware Approximate
Fri 11:35:00 AM 33.8961 -81.6853 244° Southwest  Level FlightAware Approximate
Fri 11:36:00 AM 33.8732 -81.7407 243° Southwest  Level FlightAware Approximate
Fri 11:37:00 AM 33.8500 -81.7959 243° Southwest  Level FlightAware Approximate
Fri 11:38:00 AM 33.8267 -81.8511 243° Southwest  Level FlightAware Approximate
Fri 11:39:00 AM 33.8034 -81.9062 243° Southwest  Level FlightAware Approximate
Fri 11:40:00 AM 33.7801 -81.9613 243° Southwest  Level FlightAware Approximate
Fri 11:41:00 AM 33.7567 -82.0165 243° Southwest  Level FlightAware Approximate
Fri 11:42:00 AM 33.7333 -82.0717 243° Southwest  Level FlightAware Approximate
Fri 11:43:00 AM 33.7099 -82.1268 243° Southwest  Level FlightAware Approximate
Fri 11:44:00 AM 33.6982 -82.1858 267° West  Level FlightAware Approximate
Fri 11:45:00 AM 33.6952 -82.2476 267° West  Level FlightAware Approximate
Fri 11:46:00 AM 33.6921 -82.3094 267° West  Level FlightAware Approximate
Fri 11:47:00 AM 33.6890 -82.3712 267° West  Level FlightAware Approximate
Fri 11:48:00 AM 33.6859 -82.4330 267° West  Level FlightAware Approximate
Fri 11:49:00 AM 33.6833 -82.4948 270° West  Level FlightAware Approximate
Fri 11:50:00 AM 33.6834 -82.5566 270° West  Level FlightAware Approximate
Fri 11:51:00 AM 33.6834 -82.6185 270° West  Level FlightAware Approximate
Fri 11:52:00 AM 33.6834 -82.6804 270° West  Level FlightAware Approximate
Fri 11:53:00 AM 33.6833 -82.7423 270° West  Level FlightAware Approximate
Fri 11:54:00 AM 33.6834 -82.8042 270° West  Level FlightAware Approximate
Fri 11:55:00 AM 33.6834 -82.8661 270° West  Level FlightAware Approximate
Fri 11:56:00 AM 33.6833 -82.9280 270° West  Level FlightAware Approximate
Fri 11:57:00 AM 33.6791 -82.9875 220° Southwest  Level FlightAware Approximate
Fri 11:57:30 AM 33.7167 -82.8167 270° West 188 216 8,000  Level Atlanta TRACON
Fri 11:58:00 AM 33.6667 -83.0424 270° West  Level FlightAware Approximate
Fri 11:58:30 AM 33.7167 -82.8833 270° West 191 220 7,900  Level Atlanta TRACON
Fri 11:59:00 AM 33.6667 -83.1043 270° West  Level FlightAware Approximate
Fri 11:59:30 AM 33.7000 -82.9333 248° West 191 220 7,900  Level Atlanta TRACON
Fri 12:00:00 PM 33.6667 -83.1662 270° West  Level FlightAware Approximate
Fri 12:00:24 PM 33.7000 -83.0000 270° West 185 213 7,900  Level Atlanta TRACON
Fri 12:01:00 PM 33.6667 -83.2280 270° West  Level FlightAware Approximate
Fri 12:01:30 PM 33.6833 -83.0667 253° West 188 216 7,300  Level Atlanta TRACON
Fri 12:02:00 PM 33.6667 -83.2899 270° West  Level FlightAware Approximate
Fri 12:02:24 PM 33.6667 -83.1167 248° West 196 226 6,000  Level Atlanta TRACON
Fri 12:03:24 PM 33.6667 -83.1833 270° West 202 232 4,900 -905 Descending Atlanta TRACON
Fri 12:04:30 PM 33.6500 -83.2500 253° West 191 220 4,100 -476 Descending Atlanta TRACON
Fri 12:05:30 PM 33.6333 -83.3000 248° West 179 206 3,900 -100 Descending Atlanta TRACON
Fri 12:06:30 PM 33.6167 -83.3500 248° West 160 184 3,900  Level Atlanta TRACON
Fri 12:07:24 PM 33.6167 -83.4000 270° West 162 186 3,900  Level Atlanta TRACON
Fri 12:08:24 PM 33.6000 -83.4500 248° West 168 193 3,900  Level Atlanta TRACON
Fri 12:09:24 PM 33.5833 -83.5000 248° West 167 192 3,900 -50 Level Atlanta TRACON
Fri 12:10:24 PM 33.5833 -83.5667 270° West 170 196 3,800 -250 Descending Atlanta TRACON
Fri 12:11:24 PM 33.5667 -83.6167 248° West 181 208 3,400 -450 Descending Atlanta TRACON
Fri 12:12:24 PM 33.5500 -83.6667 248° West 174 200 2,900 -263 Descending Atlanta TRACON
Fri 12:13:18 PM 33.5333 -83.7167 248° West 174 200 2,900  Level Atlanta TRACON
Fri 12:14:12 PM 33.5333 -83.7667 270° West 184 212 2,900  Level Atlanta TRACON
Fri 12:15:12 PM 33.5167 -83.8333 253° West 183 211 2,900 50 Level Atlanta TRACON
Fri 12:16:12 PM 33.5000 -83.8833 248° West 173 199 3,000 50 Climbing Atlanta TRACON
Fri 12:17:12 PM 33.5000 -83.9500 270° West 178 205 3,000 -50 Level Atlanta TRACON
Fri 12:18:12 PM 33.4833 -84.0000 248° West 182 209 2,900 -50 Descending Atlanta TRACON
Fri 12:19:12 PM 33.4667 -84.0500 248° West 176 203 2,900  Level Atlanta TRACON
Fri 12:20:12 PM 33.4500 -84.1167 253° West 179 206 2,900  Level Atlanta TRACON
Fri 12:21:12 PM 33.4500 -84.1667 270° West 175 201 2,900 50 Level Atlanta TRACON
Fri 12:22:12 PM 33.4333 -84.2333 253° West 172 198 3,000  Climbing Atlanta TRACON
Fri 12:23:06 PM 33.4167 -84.2833 248° West 178 205 2,900 -53 Descending Atlanta TRACON
Fri 12:24:06 PM 33.4167 -84.3333 270° West 173 199 2,900  Level Atlanta TRACON
Fri 12:25:12 PM 33.4000 -84.4000 253° West 174 200 2,900  Level Atlanta TRACON

Login

Don't have an account? Register now (free) for customized features, flight alerts, and more!